sensor_id;sensor_type;location;lat;lon;timestamp;pressure;altitude;pressure_sealevel;temperature;humidity
13968;BME280;39536;52.198;9.920;2023-04-23T00:01:50;99787.50;;;16.13;100.00
13968;BME280;39536;52.198;9.920;2023-04-23T00:04:18;99783.06;;;16.13;100.00
13968;BME280;39536;52.198;9.920;2023-04-23T00:06:46;99778.78;;;16.12;100.00
13968;BME280;39536;52.198;9.920;2023-04-23T00:09:14;99768.69;;;16.19;100.00
13968;BME280;39536;52.198;9.920;2023-04-23T00:11:42;99772.16;;;16.20;100.00
13968;BME280;39536;52.198;9.920;2023-04-23T00:14:10;99769.84;;;16.28;100.00
13968;BME280;39536;52.198;9.920;2023-04-23T00:16:38;99769.00;;;16.14;100.00
13968;BME280;39536;52.198;9.920;2023-04-23T00:19:05;99769.44;;;16.08;100.00
13968;BME280;39536;52.198;9.920;2023-04-23T00:21:31;99765.44;;;16.15;100.00
13968;BME280;39536;52.198;9.920;2023-04-23T00:23:58;99763.22;;;16.09;100.00
13968;BME280;39536;52.198;9.920;2023-04-23T00:26:25;99766.47;;;16.13;100.00
13968;BME280;39536;52.198;9.920;2023-04-23T00:28:51;99764.81;;;16.25;100.00
13968;BME280;39536;52.198;9.920;2023-04-23T00:31:19;99765.22;;;16.31;100.00
13968;BME280;39536;52.198;9.920;2023-04-23T00:33:47;99759.25;;;16.42;100.00
13968;BME280;39536;52.198;9.920;2023-04-23T00:36:13;99759.53;;;16.50;100.00
13968;BME280;39536;52.198;9.920;2023-04-23T00:38:40;99760.69;;;16.59;100.00
13968;BME280;39536;52.198;9.920;2023-04-23T00:41:06;99757.22;;;16.58;100.00
13968;BME280;39536;52.198;9.920;2023-04-23T00:43:34;99758.78;;;16.61;100.00
13968;BME280;39536;52.198;9.920;2023-04-23T00:46:00;99755.84;;;16.53;100.00
13968;BME280;39536;52.198;9.920;2023-04-23T00:48:28;99756.19;;;16.48;100.00
13968;BME280;39536;52.198;9.920;2023-04-23T00:50:58;99746.50;;;16.49;100.00
13968;BME280;39536;52.198;9.920;2023-04-23T00:53:25;99749.63;;;16.54;100.00
13968;BME280;39536;52.198;9.920;2023-04-23T00:55:52;99751.63;;;16.50;100.00
13968;BME280;39536;52.198;9.920;2023-04-23T00:58:19;99747.56;;;16.46;100.00
13968;BME280;39536;52.198;9.920;2023-04-23T01:00:46;99755.53;;;16.45;100.00
13968;BME280;39536;52.198;9.920;2023-04-23T01:03:12;99753.44;;;16.37;100.00
13968;BME280;39536;52.198;9.920;2023-04-23T01:05:41;99753.56;;;16.35;100.00
13968;BME280;39536;52.198;9.920;2023-04-23T01:08:09;99748.41;;;16.21;100.00
13968;BME280;39536;52.198;9.920;2023-04-23T01:10:39;99746.09;;;16.04;100.00
13968;BME280;39536;52.198;9.920;2023-04-23T01:13:06;99752.38;;;15.88;100.00
13968;BME280;39536;52.198;9.920;2023-04-23T01:15:33;99743.34;;;15.80;100.00
13968;BME280;39536;52.198;9.920;2023-04-23T01:18:00;99747.31;;;15.85;100.00
13968;BME280;39536;52.198;9.920;2023-04-23T01:20:28;99752.56;;;15.85;100.00
13968;BME280;39536;52.198;9.920;2023-04-23T01:22:56;99744.03;;;15.69;100.00
13968;BME280;39536;52.198;9.920;2023-04-23T01:25:23;99750.41;;;15.65;100.00
13968;BME280;39536;52.198;9.920;2023-04-23T01:27:49;99742.63;;;15.63;100.00
13968;BME280;39536;52.198;9.920;2023-04-23T01:30:16;99745.34;;;15.49;100.00
13968;BME280;39536;52.198;9.920;2023-04-23T01:32:43;99750.47;;;15.51;100.00
13968;BME280;39536;52.198;9.920;2023-04-23T01:35:10;99751.91;;;15.42;100.00
13968;BME280;39536;52.198;9.920;2023-04-23T01:37:37;99745.00;;;15.14;100.00
13968;BME280;39536;52.198;9.920;2023-04-23T01:40:07;99750.63;;;15.08;100.00
13968;BME280;39536;52.198;9.920;2023-04-23T01:42:34;99754.44;;;15.16;100.00
13968;BME280;39536;52.198;9.920;2023-04-23T01:45:01;99749.31;;;15.15;100.00
13968;BME280;39536;52.198;9.920;2023-04-23T01:47:28;99754.97;;;14.94;100.00
13968;BME280;39536;52.198;9.920;2023-04-23T01:49:54;99756.19;;;14.89;100.00
13968;BME280;39536;52.198;9.920;2023-04-23T01:52:21;99767.19;;;14.81;100.00
13968;BME280;39536;52.198;9.920;2023-04-23T01:54:47;99767.06;;;14.83;100.00
13968;BME280;39536;52.198;9.920;2023-04-23T01:57:16;99764.09;;;14.74;100.00
13968;BME280;39536;52.198;9.920;2023-04-23T01:59:48;99773.94;;;14.71;100.00
13968;BME280;39536;52.198;9.920;2023-04-23T02:02:14;99770.75;;;14.66;100.00
13968;BME280;39536;52.198;9.920;2023-04-23T02:04:43;99767.22;;;14.52;100.00
13968;BME280;39536;52.198;9.920;2023-04-23T02:07:10;99770.38;;;14.58;100.00
13968;BME280;39536;52.198;9.920;2023-04-23T02:09:37;99774.22;;;14.66;100.00
13968;BME280;39536;52.198;9.920;2023-04-23T02:12:04;99775.91;;;14.53;100.00
13968;BME280;39536;52.198;9.920;2023-04-23T02:14:32;99774.13;;;14.53;100.00
13968;BME280;39536;52.198;9.920;2023-04-23T02:16:58;99777.66;;;14.24;100.00
13968;BME280;39536;52.198;9.920;2023-04-23T02:19:25;99779.66;;;14.04;100.00
13968;BME280;39536;52.198;9.920;2023-04-23T02:21:52;99786.75;;;13.88;100.00
13968;BME280;39536;52.198;9.920;2023-04-23T02:24:18;99785.78;;;13.89;100.00
13968;BME280;39536;52.198;9.920;2023-04-23T02:26:45;99774.66;;;13.71;100.00
13968;BME280;39536;52.198;9.920;2023-04-23T02:29:11;99793.97;;;13.69;100.00
13968;BME280;39536;52.198;9.920;2023-04-23T02:31:39;99790.94;;;13.60;100.00
13968;BME280;39536;52.198;9.920;2023-04-23T02:34:06;99794.09;;;13.51;100.00
13968;BME280;39536;52.198;9.920;2023-04-23T02:36:32;99788.91;;;13.66;100.00
13968;BME280;39536;52.198;9.920;2023-04-23T02:38:59;99794.16;;;13.66;100.00
13968;BME280;39536;52.198;9.920;2023-04-23T02:41:25;99794.56;;;13.58;100.00
13968;BME280;39536;52.198;9.920;2023-04-23T02:43:52;99796.88;;;13.48;100.00
13968;BME280;39536;52.198;9.920;2023-04-23T02:46:19;99794.53;;;13.44;100.00
13968;BME280;39536;52.198;9.920;2023-04-23T02:48:46;99801.59;;;13.42;100.00
13968;BME280;39536;52.198;9.920;2023-04-23T02:51:14;99798.78;;;13.30;100.00
13968;BME280;39536;52.198;9.920;2023-04-23T02:53:40;99800.88;;;13.39;100.00
13968;BME280;39536;52.198;9.920;2023-04-23T02:56:07;99794.38;;;13.31;100.00
13968;BME280;39536;52.198;9.920;2023-04-23T02:58:33;99792.00;;;13.42;100.00
13968;BME280;39536;52.198;9.920;2023-04-23T03:01:00;99796.53;;;13.54;100.00
13968;BME280;39536;52.198;9.920;2023-04-23T03:03:28;99797.81;;;13.47;100.00
13968;BME280;39536;52.198;9.920;2023-04-23T03:05:58;99793.41;;;13.48;100.00
13968;BME280;39536;52.198;9.920;2023-04-23T03:08:25;99790.28;;;13.57;100.00
13968;BME280;39536;52.198;9.920;2023-04-23T03:10:51;99800.75;;;13.57;100.00
13968;BME280;39536;52.198;9.920;2023-04-23T03:13:18;99804.47;;;13.53;100.00
13968;BME280;39536;52.198;9.920;2023-04-23T03:15:45;99803.72;;;13.35;100.00
13968;BME280;39536;52.198;9.920;2023-04-23T03:18:11;99812.69;;;13.31;100.00
13968;BME280;39536;52.198;9.920;2023-04-23T03:20:38;99806.34;;;13.35;100.00
13968;BME280;39536;52.198;9.920;2023-04-23T03:23:06;99809.38;;;13.43;100.00
13968;BME280;39536;52.198;9.920;2023-04-23T03:25:33;99808.72;;;13.39;100.00
13968;BME280;39536;52.198;9.920;2023-04-23T03:28:00;99810.41;;;13.40;100.00
13968;BME280;39536;52.198;9.920;2023-04-23T03:30:27;99808.91;;;13.36;100.00
13968;BME280;39536;52.198;9.920;2023-04-23T03:32:55;99805.16;;;13.40;100.00
13968;BME280;39536;52.198;9.920;2023-04-23T03:35:22;99813.22;;;13.20;100.00
13968;BME280;39536;52.198;9.920;2023-04-23T03:37:49;99807.50;;;13.13;100.00
13968;BME280;39536;52.198;9.920;2023-04-23T03:40:18;99811.72;;;13.16;100.00
13968;BME280;39536;52.198;9.920;2023-04-23T03:42:45;99819.13;;;13.08;100.00
13968;BME280;39536;52.198;9.920;2023-04-23T03:45:12;99815.75;;;12.90;100.00
13968;BME280;39536;52.198;9.920;2023-04-23T03:47:38;99811.28;;;12.92;100.00
13968;BME280;39536;52.198;9.920;2023-04-23T03:50:06;99811.88;;;12.97;100.00
13968;BME280;39536;52.198;9.920;2023-04-23T03:52:33;99819.25;;;12.73;100.00
13968;BME280;39536;52.198;9.920;2023-04-23T03:55:00;99833.16;;;12.74;100.00
13968;BME280;39536;52.198;9.920;2023-04-23T03:57:28;99827.56;;;12.81;100.00
13968;BME280;39536;52.198;9.920;2023-04-23T03:59:55;99826.34;;;12.71;100.00
13968;BME280;39536;52.198;9.920;2023-04-23T04:02:21;99830.03;;;12.67;100.00
13968;BME280;39536;52.198;9.920;2023-04-23T04:04:48;99824.72;;;12.53;100.00
13968;BME280;39536;52.198;9.920;2023-04-23T04:07:16;99828.22;;;12.52;100.00
13968;BME280;39536;52.198;9.920;2023-04-23T04:09:42;99829.84;;;12.54;100.00
13968;BME280;39536;52.198;9.920;2023-04-23T04:12:11;99828.84;;;12.57;100.00
13968;BME280;39536;52.198;9.920;2023-04-23T04:14:39;99841.75;;;12.42;100.00
13968;BME280;39536;52.198;9.920;2023-04-23T04:17:05;99833.25;;;12.39;100.00
13968;BME280;39536;52.198;9.920;2023-04-23T04:19:32;99840.91;;;12.42;100.00
13968;BME280;39536;52.198;9.920;2023-04-23T04:21:59;99846.25;;;12.40;100.00
13968;BME280;39536;52.198;9.920;2023-04-23T04:24:27;99847.34;;;12.52;100.00
13968;BME280;39536;52.198;9.920;2023-04-23T04:26:56;99846.97;;;12.42;100.00
13968;BME280;39536;52.198;9.920;2023-04-23T04:29:24;99853.66;;;12.48;100.00
13968;BME280;39536;52.198;9.920;2023-04-23T04:31:52;99851.84;;;12.50;100.00
13968;BME280;39536;52.198;9.920;2023-04-23T04:34:19;99854.13;;;12.56;100.00
13968;BME280;39536;52.198;9.920;2023-04-23T04:36:45;99850.91;;;12.51;100.00
13968;BME280;39536;52.198;9.920;2023-04-23T04:39:12;99855.97;;;12.54;100.00
13968;BME280;39536;52.198;9.920;2023-04-23T04:41:39;99857.97;;;12.49;100.00
13968;BME280;39536;52.198;9.920;2023-04-23T04:44:07;99861.13;;;12.38;100.00
13968;BME280;39536;52.198;9.920;2023-04-23T04:46:33;99861.81;;;12.42;100.00
13968;BME280;39536;52.198;9.920;2023-04-23T04:49:06;99867.66;;;12.47;100.00
13968;BME280;39536;52.198;9.920;2023-04-23T04:51:32;99866.19;;;12.59;100.00
13968;BME280;39536;52.198;9.920;2023-04-23T04:53:59;99868.72;;;12.60;100.00
13968;BME280;39536;52.198;9.920;2023-04-23T04:56:26;99864.91;;;12.50;100.00
13968;BME280;39536;52.198;9.920;2023-04-23T04:58:52;99872.09;;;12.45;100.00
13968;BME280;39536;52.198;9.920;2023-04-23T05:01:19;99864.59;;;12.39;100.00
13968;BME280;39536;52.198;9.920;2023-04-23T05:03:47;99872.72;;;12.33;100.00
13968;BME280;39536;52.198;9.920;2023-04-23T05:06:15;99888.72;;;12.09;100.00
13968;BME280;39536;52.198;9.920;2023-04-23T05:08:42;99894.78;;;12.27;100.00
13968;BME280;39536;52.198;9.920;2023-04-23T05:11:12;99885.19;;;12.28;100.00
13968;BME280;39536;52.198;9.920;2023-04-23T05:13:39;99887.72;;;12.29;100.00
13968;BME280;39536;52.198;9.920;2023-04-23T05:16:05;99883.31;;;12.30;100.00
13968;BME280;39536;52.198;9.920;2023-04-23T05:18:32;99878.03;;;12.31;100.00
13968;BME280;39536;52.198;9.920;2023-04-23T05:20:59;99883.28;;;12.31;100.00
13968;BME280;39536;52.198;9.920;2023-04-23T05:23:27;99885.56;;;12.37;100.00
13968;BME280;39536;52.198;9.920;2023-04-23T05:25:54;99880.19;;;12.40;100.00
13968;BME280;39536;52.198;9.920;2023-04-23T05:28:22;99880.78;;;12.45;100.00
13968;BME280;39536;52.198;9.920;2023-04-23T05:30:50;99886.84;;;12.46;100.00
13968;BME280;39536;52.198;9.920;2023-04-23T05:33:16;99898.53;;;12.56;100.00
13968;BME280;39536;52.198;9.920;2023-04-23T05:35:43;99893.53;;;12.52;100.00
13968;BME280;39536;52.198;9.920;2023-04-23T05:38:10;99894.47;;;12.51;100.00
13968;BME280;39536;52.198;9.920;2023-04-23T05:40:38;99897.28;;;12.46;100.00
13968;BME280;39536;52.198;9.920;2023-04-23T05:43:04;99894.47;;;12.51;100.00
13968;BME280;39536;52.198;9.920;2023-04-23T05:45:31;99900.47;;;12.35;100.00
13968;BME280;39536;52.198;9.920;2023-04-23T05:47:58;99904.44;;;12.42;100.00
13968;BME280;39536;52.198;9.920;2023-04-23T05:50:25;99901.47;;;12.33;100.00
13968;BME280;39536;52.198;9.920;2023-04-23T05:52:51;99908.78;;;12.43;100.00
13968;BME280;39536;52.198;9.920;2023-04-23T05:55:18;99916.28;;;12.32;100.00
13968;BME280;39536;52.198;9.920;2023-04-23T05:57:47;99919.28;;;12.24;100.00
13968;BME280;39536;52.198;9.920;2023-04-23T06:00:14;99923.63;;;12.24;100.00
13968;BME280;39536;52.198;9.920;2023-04-23T06:02:41;99920.44;;;12.36;100.00
13968;BME280;39536;52.198;9.920;2023-04-23T06:05:09;99921.69;;;12.46;100.00
13968;BME280;39536;52.198;9.920;2023-04-23T06:07:35;99924.88;;;12.52;100.00
13968;BME280;39536;52.198;9.920;2023-04-23T06:10:02;99929.72;;;12.42;100.00
13968;BME280;39536;52.198;9.920;2023-04-23T06:12:29;99935.19;;;12.37;100.00
13968;BME280;39536;52.198;9.920;2023-04-23T06:14:57;99930.44;;;12.28;100.00
13968;BME280;39536;52.198;9.920;2023-04-23T06:17:24;99939.72;;;12.34;100.00
13968;BME280;39536;52.198;9.920;2023-04-23T06:19:50;99935.50;;;12.31;100.00
13968;BME280;39536;52.198;9.920;2023-04-23T06:22:17;99937.03;;;12.35;100.00
13968;BME280;39536;52.198;9.920;2023-04-23T06:24:44;99924.97;;;12.50;100.00
13968;BME280;39536;52.198;9.920;2023-04-23T06:27:11;99926.19;;;12.78;100.00
13968;BME280;39536;52.198;9.920;2023-04-23T06:29:38;99925.00;;;12.83;100.00
13968;BME280;39536;52.198;9.920;2023-04-23T06:32:06;99923.25;;;12.66;100.00
13968;BME280;39536;52.198;9.920;2023-04-23T06:34:33;99929.56;;;12.45;100.00
13968;BME280;39536;52.198;9.920;2023-04-23T06:36:59;99928.81;;;12.43;100.00
13968;BME280;39536;52.198;9.920;2023-04-23T06:39:26;99923.72;;;12.57;100.00
13968;BME280;39536;52.198;9.920;2023-04-23T06:41:52;99931.63;;;12.21;100.00
13968;BME280;39536;52.198;9.920;2023-04-23T06:44:19;99920.34;;;12.03;100.00
13968;BME280;39536;52.198;9.920;2023-04-23T06:46:46;99915.22;;;12.19;100.00
13968;BME280;39536;52.198;9.920;2023-04-23T06:49:14;99916.06;;;12.37;100.00
13968;BME280;39536;52.198;9.920;2023-04-23T06:51:41;99907.06;;;12.60;100.00
13968;BME280;39536;52.198;9.920;2023-04-23T06:54:08;99915.31;;;12.85;100.00
13968;BME280;39536;52.198;9.920;2023-04-23T06:56:35;99916.78;;;12.91;100.00
13968;BME280;39536;52.198;9.920;2023-04-23T06:59:01;99908.84;;;12.92;100.00
13968;BME280;39536;52.198;9.920;2023-04-23T07:01:28;99912.34;;;12.76;100.00
13968;BME280;39536;52.198;9.920;2023-04-23T07:03:54;99908.31;;;12.86;100.00
13968;BME280;39536;52.198;9.920;2023-04-23T07:06:22;99906.69;;;13.01;100.00
13968;BME280;39536;52.198;9.920;2023-04-23T07:08:49;99915.28;;;13.03;100.00
13968;BME280;39536;52.198;9.920;2023-04-23T07:11:16;99903.03;;;12.87;100.00
13968;BME280;39536;52.198;9.920;2023-04-23T07:13:43;99904.16;;;12.99;100.00
13968;BME280;39536;52.198;9.920;2023-04-23T07:16:10;99902.59;;;12.95;100.00
13968;BME280;39536;52.198;9.920;2023-04-23T07:18:36;99892.84;;;13.14;100.00
13968;BME280;39536;52.198;9.920;2023-04-23T07:21:03;99887.13;;;13.08;100.00
13968;BME280;39536;52.198;9.920;2023-04-23T07:23:31;99895.78;;;13.26;100.00
13968;BME280;39536;52.198;9.920;2023-04-23T07:25:57;99896.22;;;13.50;100.00
13968;BME280;39536;52.198;9.920;2023-04-23T07:28:24;99891.00;;;13.66;100.00
13968;BME280;39536;52.198;9.920;2023-04-23T07:30:51;99894.78;;;13.60;100.00
13968;BME280;39536;52.198;9.920;2023-04-23T07:33:17;99896.28;;;13.48;100.00
13968;BME280;39536;52.198;9.920;2023-04-23T07:35:44;99891.41;;;13.58;100.00
13968;BME280;39536;52.198;9.920;2023-04-23T07:38:11;99888.59;;;13.77;100.00
13968;BME280;39536;52.198;9.920;2023-04-23T07:40:39;99883.00;;;13.83;100.00
13968;BME280;39536;52.198;9.920;2023-04-23T07:43:05;99883.38;;;13.93;100.00
13968;BME280;39536;52.198;9.920;2023-04-23T07:45:32;99894.03;;;13.74;100.00
13968;BME280;39536;52.198;9.920;2023-04-23T07:47:59;99895.28;;;13.67;100.00
13968;BME280;39536;52.198;9.920;2023-04-23T07:50:26;99902.91;;;13.39;100.00
13968;BME280;39536;52.198;9.920;2023-04-23T07:52:53;99890.56;;;13.57;100.00
13968;BME280;39536;52.198;9.920;2023-04-23T07:55:20;99883.72;;;13.71;100.00
13968;BME280;39536;52.198;9.920;2023-04-23T07:57:48;99876.69;;;13.87;100.00
13968;BME280;39536;52.198;9.920;2023-04-23T08:00:15;99879.41;;;14.16;100.00
13968;BME280;39536;52.198;9.920;2023-04-23T08:02:41;99867.28;;;14.29;100.00
13968;BME280;39536;52.198;9.920;2023-04-23T08:05:08;99873.53;;;14.26;100.00
13968;BME280;39536;52.198;9.920;2023-04-23T08:07:35;99870.66;;;14.45;100.00
13968;BME280;39536;52.198;9.920;2023-04-23T08:10:02;99865.69;;;14.71;100.00
13968;BME280;39536;52.198;9.920;2023-04-23T08:12:30;99860.81;;;14.93;100.00
13968;BME280;39536;52.198;9.920;2023-04-23T08:14:59;99856.97;;;15.13;100.00
13968;BME280;39536;52.198;9.920;2023-04-23T08:17:26;99867.06;;;15.34;100.00
13968;BME280;39536;52.198;9.920;2023-04-23T08:19:53;99869.00;;;15.44;100.00
13968;BME280;39536;52.198;9.920;2023-04-23T08:22:19;99873.50;;;15.42;100.00
13968;BME280;39536;52.198;9.920;2023-04-23T08:24:46;99869.13;;;15.29;100.00
13968;BME280;39536;52.198;9.920;2023-04-23T08:27:12;99866.75;;;15.38;100.00
13968;BME280;39536;52.198;9.920;2023-04-23T08:29:39;99868.66;;;15.22;100.00
13968;BME280;39536;52.198;9.920;2023-04-23T08:32:07;99857.75;;;15.42;100.00
13968;BME280;39536;52.198;9.920;2023-04-23T08:34:34;99858.66;;;15.56;100.00
13968;BME280;39536;52.198;9.920;2023-04-23T08:37:00;99855.19;;;15.55;100.00
13968;BME280;39536;52.198;9.920;2023-04-23T08:39:27;99853.59;;;15.67;100.00
13968;BME280;39536;52.198;9.920;2023-04-23T08:41:58;99854.13;;;15.72;100.00
13968;BME280;39536;52.198;9.920;2023-04-23T08:44:30;99860.13;;;15.60;100.00
13968;BME280;39536;52.198;9.920;2023-04-23T08:47:00;99862.72;;;15.47;100.00
13968;BME280;39536;52.198;9.920;2023-04-23T08:49:32;99862.56;;;15.63;100.00
13968;BME280;39536;52.198;9.920;2023-04-23T08:52:09;99856.66;;;15.74;100.00
13968;BME280;39536;52.198;9.920;2023-04-23T08:54:40;99858.22;;;15.76;100.00
13968;BME280;39536;52.198;9.920;2023-04-23T08:57:07;99853.47;;;15.96;100.00
13968;BME280;39536;52.198;9.920;2023-04-23T08:59:35;99842.88;;;16.10;100.00
13968;BME280;39536;52.198;9.920;2023-04-23T09:02:02;99843.09;;;16.07;100.00
13968;BME280;39536;52.198;9.920;2023-04-23T09:04:36;99846.13;;;16.13;100.00
13968;BME280;39536;52.198;9.920;2023-04-23T09:07:03;99836.09;;;16.33;100.00
13968;BME280;39536;52.198;9.920;2023-04-23T09:09:32;99839.44;;;16.48;100.00
13968;BME280;39536;52.198;9.920;2023-04-23T09:12:00;99832.22;;;16.77;100.00
13968;BME280;39536;52.198;9.920;2023-04-23T09:14:26;99834.41;;;16.96;100.00
13968;BME280;39536;52.198;9.920;2023-04-23T09:16:53;99826.59;;;17.07;100.00
13968;BME280;39536;52.198;9.920;2023-04-23T09:19:21;99825.31;;;17.13;100.00
13968;BME280;39536;52.198;9.920;2023-04-23T09:21:51;99822.81;;;17.11;100.00
13968;BME280;39536;52.198;9.920;2023-04-23T09:24:21;99828.34;;;17.19;100.00
13968;BME280;39536;52.198;9.920;2023-04-23T09:26:48;99822.69;;;17.13;100.00
13968;BME280;39536;52.198;9.920;2023-04-23T09:29:16;99822.72;;;17.00;100.00
13968;BME280;39536;52.198;9.920;2023-04-23T09:31:44;99818.41;;;16.99;100.00
13968;BME280;39536;52.198;9.920;2023-04-23T09:34:13;99810.50;;;16.99;100.00
13968;BME280;39536;52.198;9.920;2023-04-23T09:36:41;99811.44;;;17.11;100.00
13968;BME280;39536;52.198;9.920;2023-04-23T09:39:12;99818.06;;;17.03;100.00
13968;BME280;39536;52.198;9.920;2023-04-23T09:41:39;99813.53;;;17.05;100.00
13968;BME280;39536;52.198;9.920;2023-04-23T09:44:05;99818.25;;;17.26;100.00
13968;BME280;39536;52.198;9.920;2023-04-23T09:46:37;99815.88;;;17.34;99.92
13968;BME280;39536;52.198;9.920;2023-04-23T09:49:06;99815.78;;;17.36;100.00
13968;BME280;39536;52.198;9.920;2023-04-23T09:51:35;99815.50;;;17.51;100.00
13968;BME280;39536;52.198;9.920;2023-04-23T09:54:01;99804.16;;;17.62;100.00
13968;BME280;39536;52.198;9.920;2023-04-23T09:56:30;99813.81;;;17.74;93.45
13968;BME280;39536;52.198;9.920;2023-04-23T09:58:57;99815.44;;;17.64;92.87
13968;BME280;39536;52.198;9.920;2023-04-23T10:01:27;99816.50;;;17.62;94.11
13968;BME280;39536;52.198;9.920;2023-04-23T10:03:55;99810.41;;;17.61;95.04
13968;BME280;39536;52.198;9.920;2023-04-23T10:06:26;99801.16;;;17.55;98.95
13968;BME280;39536;52.198;9.920;2023-04-23T10:08:54;99814.25;;;17.68;98.31
13968;BME280;39536;52.198;9.920;2023-04-23T10:11:22;99795.50;;;17.73;97.58
13968;BME280;39536;52.198;9.920;2023-04-23T10:13:51;99793.91;;;17.70;98.47
13968;BME280;39536;52.198;9.920;2023-04-23T10:16:20;99802.44;;;17.98;99.10
13968;BME280;39536;52.198;9.920;2023-04-23T10:18:47;99792.28;;;18.16;99.58
13968;BME280;39536;52.198;9.920;2023-04-23T10:21:15;99800.31;;;18.14;97.80
13968;BME280;39536;52.198;9.920;2023-04-23T10:23:43;99793.25;;;18.15;94.82
13968;BME280;39536;52.198;9.920;2023-04-23T10:26:13;99787.75;;;18.40;92.32
13968;BME280;39536;52.198;9.920;2023-04-23T10:28:43;99788.59;;;18.30;92.73
13968;BME280;39536;52.198;9.920;2023-04-23T10:31:13;99786.69;;;18.32;95.69
13968;BME280;39536;52.198;9.920;2023-04-23T10:33:41;99786.81;;;18.64;91.67
13968;BME280;39536;52.198;9.920;2023-04-23T10:36:08;99785.47;;;19.03;91.23
13968;BME280;39536;52.198;9.920;2023-04-23T10:38:35;99777.06;;;19.21;89.97
13968;BME280;39536;52.198;9.920;2023-04-23T10:41:03;99780.03;;;19.38;91.10
13968;BME280;39536;52.198;9.920;2023-04-23T10:43:30;99780.59;;;18.99;92.35
13968;BME280;39536;52.198;9.920;2023-04-23T10:45:57;99789.09;;;18.57;96.17
13968;BME280;39536;52.198;9.920;2023-04-23T10:48:26;99787.69;;;18.76;95.30
13968;BME280;39536;52.198;9.920;2023-04-23T10:50:56;99782.03;;;18.58;93.68
13968;BME280;39536;52.198;9.920;2023-04-23T10:53:23;99778.44;;;18.92;92.89
13968;BME280;39536;52.198;9.920;2023-04-23T10:56:03;99788.19;;;19.35;91.35
13968;BME280;39536;52.198;9.920;2023-04-23T10:58:48;99787.28;;;19.57;88.79
13968;BME280;39536;52.198;9.920;2023-04-23T11:01:16;99785.38;;;19.48;86.72
13968;BME280;39536;52.198;9.920;2023-04-23T11:03:45;99772.56;;;19.76;84.94
13968;BME280;39536;52.198;9.920;2023-04-23T11:06:12;99778.84;;;19.64;83.85
13968;BME280;39536;52.198;9.920;2023-04-23T11:08:50;99774.38;;;19.75;81.84
13968;BME280;39536;52.198;9.920;2023-04-23T11:11:17;99774.06;;;19.57;77.15
13968;BME280;39536;52.198;9.920;2023-04-23T11:13:51;99759.94;;;19.79;78.04
13968;BME280;39536;52.198;9.920;2023-04-23T11:16:20;99763.22;;;19.93;75.79
13968;BME280;39536;52.198;9.920;2023-04-23T11:18:58;99767.84;;;20.21;75.35
13968;BME280;39536;52.198;9.920;2023-04-23T11:21:55;99751.19;;;20.30;75.28
13968;BME280;39536;52.198;9.920;2023-04-23T11:24:22;99749.31;;;20.42;75.69
13968;BME280;39536;52.198;9.920;2023-04-23T11:26:50;99755.22;;;20.56;76.20
13968;BME280;39536;52.198;9.920;2023-04-23T11:29:20;99753.81;;;20.82;69.13
13968;BME280;39536;52.198;9.920;2023-04-23T11:31:47;99744.41;;;20.68;72.28
13968;BME280;39536;52.198;9.920;2023-04-23T11:34:15;99738.53;;;20.55;71.98
13968;BME280;39536;52.198;9.920;2023-04-23T11:36:42;99749.13;;;20.65;72.15
13968;BME280;39536;52.198;9.920;2023-04-23T11:39:09;99746.88;;;20.91;71.75
13968;BME280;39536;52.198;9.920;2023-04-23T11:41:38;99737.97;;;21.02;69.81
13968;BME280;39536;52.198;9.920;2023-04-23T11:44:04;99730.84;;;21.12;68.08
13968;BME280;39536;52.198;9.920;2023-04-23T11:46:32;99729.75;;;21.24;65.49
13968;BME280;39536;52.198;9.920;2023-04-23T11:48:59;99737.44;;;21.27;65.00
13968;BME280;39536;52.198;9.920;2023-04-23T11:51:27;99728.91;;;20.94;69.08
13968;BME280;39536;52.198;9.920;2023-04-23T11:54:01;99735.97;;;20.44;70.26
13968;BME280;39536;52.198;9.920;2023-04-23T11:56:29;99735.31;;;20.30;75.42
13968;BME280;39536;52.198;9.920;2023-04-23T11:58:58;99729.69;;;20.14;69.91
13968;BME280;39536;52.198;9.920;2023-04-23T12:01:25;99729.56;;;20.16;69.13
13968;BME280;39536;52.198;9.920;2023-04-23T12:03:52;99733.63;;;19.99;70.77
13968;BME280;39536;52.198;9.920;2023-04-23T12:06:18;99728.69;;;19.84;74.25
13968;BME280;39536;52.198;9.920;2023-04-23T12:08:46;99731.88;;;20.09;74.55
13968;BME280;39536;52.198;9.920;2023-04-23T12:11:13;99722.28;;;20.39;75.08
13968;BME280;39536;52.198;9.920;2023-04-23T12:13:40;99730.41;;;20.47;76.36
13968;BME280;39536;52.198;9.920;2023-04-23T12:16:07;99723.25;;;20.38;71.03
13968;BME280;39536;52.198;9.920;2023-04-23T12:18:35;99735.38;;;20.10;76.88
13968;BME280;39536;52.198;9.920;2023-04-23T12:21:08;99752.47;;;19.20;90.84
13968;BME280;39536;52.198;9.920;2023-04-23T12:23:35;99748.81;;;18.55;97.57
13968;BME280;39536;52.198;9.920;2023-04-23T12:26:09;99745.69;;;18.50;100.00
13968;BME280;39536;52.198;9.920;2023-04-23T12:28:44;99735.84;;;18.41;98.68
13968;BME280;39536;52.198;9.920;2023-04-23T12:31:18;99729.25;;;18.24;98.73
13968;BME280;39536;52.198;9.920;2023-04-23T12:33:45;99727.13;;;18.29;97.58
13968;BME280;39536;52.198;9.920;2023-04-23T12:36:14;99723.16;;;18.23;96.07
13968;BME280;39536;52.198;9.920;2023-04-23T12:38:41;99729.41;;;18.22;96.42
13968;BME280;39536;52.198;9.920;2023-04-23T12:41:09;99730.94;;;18.25;93.18
13968;BME280;39536;52.198;9.920;2023-04-23T12:43:36;99732.50;;;18.16;92.31
13968;BME280;39536;52.198;9.920;2023-04-23T12:46:02;99732.72;;;18.24;90.55
13968;BME280;39536;52.198;9.920;2023-04-23T12:48:29;99733.69;;;18.46;90.32
13968;BME280;39536;52.198;9.920;2023-04-23T12:50:56;99735.28;;;18.82;86.30
13968;BME280;39536;52.198;9.920;2023-04-23T12:53:22;99732.66;;;19.26;81.99
13968;BME280;39536;52.198;9.920;2023-04-23T12:55:49;99730.13;;;19.56;76.40